sensor_id;sensor_type;location;lat;lon;timestamp;P1;durP1;ratioP1;P2;durP2;ratioP2
20697;SDS011;10508;50.956;4.640;2024-03-08T00:00:15;34.83;;;13.75;;
20697;SDS011;10508;50.956;4.640;2024-03-08T00:02:46;27.20;;;12.00;;
20697;SDS011;10508;50.956;4.640;2024-03-08T00:05:13;32.30;;;11.85;;
20697;SDS011;10508;50.956;4.640;2024-03-08T00:07:39;26.38;;;12.38;;
20697;SDS011;10508;50.956;4.640;2024-03-08T00:10:06;34.85;;;12.70;;
20697;SDS011;10508;50.956;4.640;2024-03-08T00:12:36;29.33;;;12.52;;
20697;SDS011;10508;50.956;4.640;2024-03-08T00:15:11;32.00;;;12.00;;
20697;SDS011;10508;50.956;4.640;2024-03-08T00:17:39;32.17;;;13.23;;
20697;SDS011;10508;50.956;4.640;2024-03-08T00:20:06;32.03;;;12.70;;
20697;SDS011;10508;50.956;4.640;2024-03-08T00:22:35;30.33;;;12.38;;
20697;SDS011;10508;50.956;4.640;2024-03-08T00:25:04;26.77;;;12.68;;
20697;SDS011;10508;50.956;4.640;2024-03-08T00:27:34;30.48;;;12.55;;
20697;SDS011;10508;50.956;4.640;2024-03-08T00:30:01;36.40;;;13.13;;
20697;SDS011;10508;50.956;4.640;2024-03-08T00:32:27;33.55;;;13.63;;
20697;SDS011;10508;50.956;4.640;2024-03-08T00:34:53;33.58;;;13.75;;
20697;SDS011;10508;50.956;4.640;2024-03-08T00:37:19;31.95;;;12.93;;
20697;SDS011;10508;50.956;4.640;2024-03-08T00:39:47;34.53;;;13.23;;
20697;SDS011;10508;50.956;4.640;2024-03-08T00:42:14;32.80;;;13.13;;
20697;SDS011;10508;50.956;4.640;2024-03-08T00:44:40;32.22;;;13.60;;
20697;SDS011;10508;50.956;4.640;2024-03-08T00:47:06;30.38;;;12.48;;
20697;SDS011;10508;50.956;4.640;2024-03-08T00:49:32;32.95;;;13.23;;
20697;SDS011;10508;50.956;4.640;2024-03-08T00:51:57;29.27;;;13.10;;
20697;SDS011;10508;50.956;4.640;2024-03-08T00:54:23;33.53;;;13.18;;
20697;SDS011;10508;50.956;4.640;2024-03-08T00:56:49;35.85;;;13.63;;
20697;SDS011;10508;50.956;4.640;2024-03-08T00:59:14;31.13;;;13.18;;
20697;SDS011;10508;50.956;4.640;2024-03-08T01:01:40;33.30;;;13.63;;
20697;SDS011;10508;50.956;4.640;2024-03-08T01:04:06;33.70;;;13.13;;
20697;SDS011;10508;50.956;4.640;2024-03-08T01:06:33;35.45;;;13.85;;
20697;SDS011;10508;50.956;4.640;2024-03-08T01:08:59;31.75;;;13.10;;
20697;SDS011;10508;50.956;4.640;2024-03-08T01:11:25;36.28;;;14.25;;
20697;SDS011;10508;50.956;4.640;2024-03-08T01:13:53;39.03;;;14.40;;
20697;SDS011;10508;50.956;4.640;2024-03-08T01:16:19;35.92;;;14.60;;
20697;SDS011;10508;50.956;4.640;2024-03-08T01:18:46;30.33;;;13.10;;
20697;SDS011;10508;50.956;4.640;2024-03-08T01:21:12;33.45;;;14.23;;
20697;SDS011;10508;50.956;4.640;2024-03-08T01:23:38;25.65;;;13.13;;
20697;SDS011;10508;50.956;4.640;2024-03-08T01:26:04;35.55;;;12.68;;
20697;SDS011;10508;50.956;4.640;2024-03-08T01:28:31;31.02;;;12.20;;
20697;SDS011;10508;50.956;4.640;2024-03-08T01:30:59;30.85;;;13.82;;
20697;SDS011;10508;50.956;4.640;2024-03-08T01:33:25;29.50;;;13.77;;
20697;SDS011;10508;50.956;4.640;2024-03-08T01:35:52;33.15;;;14.10;;
20697;SDS011;10508;50.956;4.640;2024-03-08T01:38:22;38.75;;;14.48;;
20697;SDS011;10508;50.956;4.640;2024-03-08T01:40:48;31.05;;;14.30;;
20697;SDS011;10508;50.956;4.640;2024-03-08T01:43:18;34.05;;;13.88;;
20697;SDS011;10508;50.956;4.640;2024-03-08T01:45:48;33.33;;;14.23;;
20697;SDS011;10508;50.956;4.640;2024-03-08T01:48:14;28.48;;;13.63;;
20697;SDS011;10508;50.956;4.640;2024-03-08T01:50:41;36.75;;;14.13;;
20697;SDS011;10508;50.956;4.640;2024-03-08T01:53:07;34.28;;;14.88;;
20697;SDS011;10508;50.956;4.640;2024-03-08T01:55:37;34.35;;;15.13;;
20697;SDS011;10508;50.956;4.640;2024-03-08T01:58:04;36.78;;;15.27;;
20697;SDS011;10508;50.956;4.640;2024-03-08T02:00:31;33.42;;;13.55;;
20697;SDS011;10508;50.956;4.640;2024-03-08T02:02:58;32.63;;;14.25;;
20697;SDS011;10508;50.956;4.640;2024-03-08T02:05:25;29.60;;;13.73;;
20697;SDS011;10508;50.956;4.640;2024-03-08T02:07:51;30.35;;;13.95;;
20697;SDS011;10508;50.956;4.640;2024-03-08T02:10:16;34.33;;;14.48;;
20697;SDS011;10508;50.956;4.640;2024-03-08T02:12:42;28.98;;;14.63;;
20697;SDS011;10508;50.956;4.640;2024-03-08T02:15:09;30.67;;;14.52;;
20697;SDS011;10508;50.956;4.640;2024-03-08T02:17:35;30.88;;;14.27;;
20697;SDS011;10508;50.956;4.640;2024-03-08T02:20:01;35.35;;;14.88;;
20697;SDS011;10508;50.956;4.640;2024-03-08T02:22:28;29.83;;;14.07;;
20697;SDS011;10508;50.956;4.640;2024-03-08T02:24:55;40.08;;;17.15;;
20697;SDS011;10508;50.956;4.640;2024-03-08T02:27:25;31.42;;;14.63;;
20697;SDS011;10508;50.956;4.640;2024-03-08T02:29:51;32.53;;;15.35;;
20697;SDS011;10508;50.956;4.640;2024-03-08T02:32:23;38.00;;;15.63;;
20697;SDS011;10508;50.956;4.640;2024-03-08T02:34:49;34.35;;;15.00;;
20697;SDS011;10508;50.956;4.640;2024-03-08T02:37:16;41.30;;;16.30;;
20697;SDS011;10508;50.956;4.640;2024-03-08T02:39:42;34.60;;;15.57;;
20697;SDS011;10508;50.956;4.640;2024-03-08T02:42:08;33.97;;;14.27;;
20697;SDS011;10508;50.956;4.640;2024-03-08T02:44:34;33.10;;;14.98;;
20697;SDS011;10508;50.956;4.640;2024-03-08T02:46:59;34.65;;;15.70;;
20697;SDS011;10508;50.956;4.640;2024-03-08T02:49:26;38.33;;;16.67;;
20697;SDS011;10508;50.956;4.640;2024-03-08T02:51:52;35.15;;;15.48;;
20697;SDS011;10508;50.956;4.640;2024-03-08T02:54:18;32.47;;;15.38;;
20697;SDS011;10508;50.956;4.640;2024-03-08T02:56:45;29.55;;;15.05;;
20697;SDS011;10508;50.956;4.640;2024-03-08T02:59:12;33.13;;;14.90;;
20697;SDS011;10508;50.956;4.640;2024-03-08T03:01:38;28.20;;;13.93;;
20697;SDS011;10508;50.956;4.640;2024-03-08T03:04:04;35.95;;;15.85;;
20697;SDS011;10508;50.956;4.640;2024-03-08T03:06:30;33.70;;;15.48;;
20697;SDS011;10508;50.956;4.640;2024-03-08T03:08:56;32.55;;;15.10;;
20697;SDS011;10508;50.956;4.640;2024-03-08T03:11:22;30.10;;;15.40;;
20697;SDS011;10508;50.956;4.640;2024-03-08T03:13:48;33.72;;;15.55;;
20697;SDS011;10508;50.956;4.640;2024-03-08T03:16:18;37.55;;;15.73;;
20697;SDS011;10508;50.956;4.640;2024-03-08T03:18:47;37.53;;;15.93;;
20697;SDS011;10508;50.956;4.640;2024-03-08T03:21:14;34.53;;;15.25;;
20697;SDS011;10508;50.956;4.640;2024-03-08T03:23:40;31.60;;;16.52;;
20697;SDS011;10508;50.956;4.640;2024-03-08T03:26:07;37.38;;;16.50;;
20697;SDS011;10508;50.956;4.640;2024-03-08T03:28:33;37.13;;;15.32;;
20697;SDS011;10508;50.956;4.640;2024-03-08T03:30:59;37.13;;;16.55;;
20697;SDS011;10508;50.956;4.640;2024-03-08T03:33:26;31.45;;;15.63;;
20697;SDS011;10508;50.956;4.640;2024-03-08T03:35:52;33.03;;;15.35;;
20697;SDS011;10508;50.956;4.640;2024-03-08T03:38:18;33.67;;;15.38;;
20697;SDS011;10508;50.956;4.640;2024-03-08T03:40:44;29.95;;;15.30;;
20697;SDS011;10508;50.956;4.640;2024-03-08T03:43:11;36.15;;;16.23;;
20697;SDS011;10508;50.956;4.640;2024-03-08T03:45:37;37.88;;;16.65;;
20697;SDS011;10508;50.956;4.640;2024-03-08T03:50:31;32.38;;;15.70;;
20697;SDS011;10508;50.956;4.640;2024-03-08T03:52:59;33.10;;;15.45;;
20697;SDS011;10508;50.956;4.640;2024-03-08T03:55:25;31.58;;;15.65;;
20697;SDS011;10508;50.956;4.640;2024-03-08T03:57:52;34.95;;;16.73;;
20697;SDS011;10508;50.956;4.640;2024-03-08T04:00:17;41.95;;;16.48;;
20697;SDS011;10508;50.956;4.640;2024-03-08T04:02:43;40.42;;;15.68;;
20697;SDS011;10508;50.956;4.640;2024-03-08T04:05:09;35.28;;;16.42;;
20697;SDS011;10508;50.956;4.640;2024-03-08T04:07:36;36.20;;;14.75;;
20697;SDS011;10508;50.956;4.640;2024-03-08T04:10:03;33.53;;;15.95;;
20697;SDS011;10508;50.956;4.640;2024-03-08T04:12:31;35.85;;;16.27;;
20697;SDS011;10508;50.956;4.640;2024-03-08T04:15:00;34.75;;;15.80;;
20697;SDS011;10508;50.956;4.640;2024-03-08T04:17:26;35.47;;;17.00;;
20697;SDS011;10508;50.956;4.640;2024-03-08T04:19:51;34.10;;;15.95;;
20697;SDS011;10508;50.956;4.640;2024-03-08T04:22:18;31.02;;;15.30;;
20697;SDS011;10508;50.956;4.640;2024-03-08T04:24:44;33.05;;;15.65;;
20697;SDS011;10508;50.956;4.640;2024-03-08T04:27:11;36.20;;;14.93;;
20697;SDS011;10508;50.956;4.640;2024-03-08T04:29:37;39.67;;;16.33;;
20697;SDS011;10508;50.956;4.640;2024-03-08T04:32:03;35.25;;;16.35;;
20697;SDS011;10508;50.956;4.640;2024-03-08T04:34:30;34.17;;;16.55;;
20697;SDS011;10508;50.956;4.640;2024-03-08T04:36:59;29.63;;;15.77;;
20697;SDS011;10508;50.956;4.640;2024-03-08T04:39:25;33.92;;;15.57;;
20697;SDS011;10508;50.956;4.640;2024-03-08T04:41:55;34.55;;;14.88;;
20697;SDS011;10508;50.956;4.640;2024-03-08T04:44:25;30.45;;;15.00;;
20697;SDS011;10508;50.956;4.640;2024-03-08T04:46:51;40.65;;;15.88;;
20697;SDS011;10508;50.956;4.640;2024-03-08T04:49:17;38.45;;;16.23;;
20697;SDS011;10508;50.956;4.640;2024-03-08T04:51:42;35.53;;;16.67;;
20697;SDS011;10508;50.956;4.640;2024-03-08T04:54:10;34.30;;;15.18;;
20697;SDS011;10508;50.956;4.640;2024-03-08T04:56:35;33.75;;;15.55;;
20697;SDS011;10508;50.956;4.640;2024-03-08T04:59:01;34.33;;;15.85;;
20697;SDS011;10508;50.956;4.640;2024-03-08T05:01:27;31.08;;;14.52;;
20697;SDS011;10508;50.956;4.640;2024-03-08T05:03:53;34.30;;;16.30;;
20697;SDS011;10508;50.956;4.640;2024-03-08T05:06:20;34.15;;;14.55;;
20697;SDS011;10508;50.956;4.640;2024-03-08T05:08:46;32.67;;;15.07;;
20697;SDS011;10508;50.956;4.640;2024-03-08T05:11:12;33.13;;;15.00;;
20697;SDS011;10508;50.956;4.640;2024-03-08T05:13:39;31.20;;;14.32;;
20697;SDS011;10508;50.956;4.640;2024-03-08T05:16:05;35.78;;;15.63;;
20697;SDS011;10508;50.956;4.640;2024-03-08T05:18:33;30.63;;;14.43;;
20697;SDS011;10508;50.956;4.640;2024-03-08T05:20:59;42.35;;;16.73;;
20697;SDS011;10508;50.956;4.640;2024-03-08T05:23:24;36.65;;;16.40;;
20697;SDS011;10508;50.956;4.640;2024-03-08T05:25:50;37.58;;;15.68;;
20697;SDS011;10508;50.956;4.640;2024-03-08T05:28:16;39.78;;;16.38;;
20697;SDS011;10508;50.956;4.640;2024-03-08T05:30:42;32.67;;;15.32;;
20697;SDS011;10508;50.956;4.640;2024-03-08T05:33:07;37.15;;;16.17;;
20697;SDS011;10508;50.956;4.640;2024-03-08T05:35:39;42.78;;;16.27;;
20697;SDS011;10508;50.956;4.640;2024-03-08T05:38:05;32.85;;;16.05;;
20697;SDS011;10508;50.956;4.640;2024-03-08T05:40:32;36.90;;;16.10;;
20697;SDS011;10508;50.956;4.640;2024-03-08T05:43:00;33.60;;;15.50;;
20697;SDS011;10508;50.956;4.640;2024-03-08T05:45:26;35.10;;;16.25;;
20697;SDS011;10508;50.956;4.640;2024-03-08T05:47:52;42.75;;;16.25;;
20697;SDS011;10508;50.956;4.640;2024-03-08T05:50:18;35.40;;;15.43;;
20697;SDS011;10508;50.956;4.640;2024-03-08T05:52:44;38.20;;;15.55;;
20697;SDS011;10508;50.956;4.640;2024-03-08T05:55:10;38.35;;;16.30;;
20697;SDS011;10508;50.956;4.640;2024-03-08T05:57:39;33.92;;;15.80;;
20697;SDS011;10508;50.956;4.640;2024-03-08T06:00:08;37.38;;;15.07;;
20697;SDS011;10508;50.956;4.640;2024-03-08T06:02:40;30.67;;;14.88;;
20697;SDS011;10508;50.956;4.640;2024-03-08T06:05:08;37.28;;;15.80;;
20697;SDS011;10508;50.956;4.640;2024-03-08T06:07:34;38.17;;;16.20;;
20697;SDS011;10508;50.956;4.640;2024-03-08T06:10:00;36.10;;;15.50;;
20697;SDS011;10508;50.956;4.640;2024-03-08T06:12:26;37.88;;;16.80;;
20697;SDS011;10508;50.956;4.640;2024-03-08T06:14:54;37.97;;;16.17;;
20697;SDS011;10508;50.956;4.640;2024-03-08T06:17:19;31.23;;;15.57;;
20697;SDS011;10508;50.956;4.640;2024-03-08T06:19:50;36.03;;;15.35;;
20697;SDS011;10508;50.956;4.640;2024-03-08T06:22:32;35.40;;;15.73;;
20697;SDS011;10508;50.956;4.640;2024-03-08T06:25:16;34.80;;;16.45;;
20697;SDS011;10508;50.956;4.640;2024-03-08T06:27:42;37.50;;;15.18;;
20697;SDS011;10508;50.956;4.640;2024-03-08T06:30:09;38.60;;;16.30;;
20697;SDS011;10508;50.956;4.640;2024-03-08T06:32:37;42.55;;;15.95;;
20697;SDS011;10508;50.956;4.640;2024-03-08T06:35:03;35.33;;;15.10;;
20697;SDS011;10508;50.956;4.640;2024-03-08T06:37:32;38.08;;;15.98;;
20697;SDS011;10508;50.956;4.640;2024-03-08T06:40:16;38.67;;;15.68;;
20697;SDS011;10508;50.956;4.640;2024-03-08T06:42:42;35.55;;;15.52;;
20697;SDS011;10508;50.956;4.640;2024-03-08T06:45:08;40.75;;;15.98;;
20697;SDS011;10508;50.956;4.640;2024-03-08T06:47:35;37.05;;;15.98;;
20697;SDS011;10508;50.956;4.640;2024-03-08T06:50:02;35.83;;;15.88;;
20697;SDS011;10508;50.956;4.640;2024-03-08T06:52:29;35.53;;;16.88;;
20697;SDS011;10508;50.956;4.640;2024-03-08T06:54:54;38.25;;;16.25;;
20697;SDS011;10508;50.956;4.640;2024-03-08T06:57:22;39.97;;;16.25;;
20697;SDS011;10508;50.956;4.640;2024-03-08T06:59:48;37.83;;;16.08;;
20697;SDS011;10508;50.956;4.640;2024-03-08T07:02:14;39.95;;;16.08;;
20697;SDS011;10508;50.956;4.640;2024-03-08T07:04:40;38.95;;;15.45;;
20697;SDS011;10508;50.956;4.640;2024-03-08T07:07:05;36.08;;;15.13;;
20697;SDS011;10508;50.956;4.640;2024-03-08T07:09:37;41.33;;;16.33;;
20697;SDS011;10508;50.956;4.640;2024-03-08T07:12:03;36.17;;;16.13;;
20697;SDS011;10508;50.956;4.640;2024-03-08T07:14:29;34.72;;;14.52;;
20697;SDS011;10508;50.956;4.640;2024-03-08T07:16:56;37.10;;;15.43;;
20697;SDS011;10508;50.956;4.640;2024-03-08T07:19:22;43.50;;;16.90;;
20697;SDS011;10508;50.956;4.640;2024-03-08T07:21:47;31.92;;;14.88;;
20697;SDS011;10508;50.956;4.640;2024-03-08T07:24:13;38.55;;;15.57;;
20697;SDS011;10508;50.956;4.640;2024-03-08T07:26:42;36.40;;;15.82;;
20697;SDS011;10508;50.956;4.640;2024-03-08T07:29:15;37.42;;;15.52;;
20697;SDS011;10508;50.956;4.640;2024-03-08T07:31:41;29.38;;;13.90;;
20697;SDS011;10508;50.956;4.640;2024-03-08T07:34:06;31.63;;;14.50;;
20697;SDS011;10508;50.956;4.640;2024-03-08T07:36:33;33.20;;;16.00;;
20697;SDS011;10508;50.956;4.640;2024-03-08T07:39:00;35.28;;;15.40;;
20697;SDS011;10508;50.956;4.640;2024-03-08T07:41:26;41.08;;;16.20;;
20697;SDS011;10508;50.956;4.640;2024-03-08T07:43:51;35.33;;;16.10;;
20697;SDS011;10508;50.956;4.640;2024-03-08T07:46:17;34.97;;;15.13;;
20697;SDS011;10508;50.956;4.640;2024-03-08T07:48:43;33.47;;;14.88;;
20697;SDS011;10508;50.956;4.640;2024-03-08T07:51:10;31.42;;;14.65;;
20697;SDS011;10508;50.956;4.640;2024-03-08T07:53:37;38.67;;;15.30;;
20697;SDS011;10508;50.956;4.640;2024-03-08T07:56:03;37.00;;;15.50;;
20697;SDS011;10508;50.956;4.640;2024-03-08T07:58:34;34.03;;;15.68;;
20697;SDS011;10508;50.956;4.640;2024-03-08T08:01:00;36.47;;;15.57;;
20697;SDS011;10508;50.956;4.640;2024-03-08T08:03:25;32.92;;;14.25;;
20697;SDS011;10508;50.956;4.640;2024-03-08T08:05:52;33.20;;;13.20;;
20697;SDS011;10508;50.956;4.640;2024-03-08T08:08:18;35.88;;;15.85;;
20697;SDS011;10508;50.956;4.640;2024-03-08T08:10:44;33.97;;;14.13;;
20697;SDS011;10508;50.956;4.640;2024-03-08T08:13:09;28.02;;;13.93;;
20697;SDS011;10508;50.956;4.640;2024-03-08T08:15:36;37.67;;;14.40;;
20697;SDS011;10508;50.956;4.640;2024-03-08T08:18:01;29.58;;;14.35;;
20697;SDS011;10508;50.956;4.640;2024-03-08T08:20:30;31.42;;;13.80;;
20697;SDS011;10508;50.956;4.640;2024-03-08T08:22:56;30.70;;;13.63;;
20697;SDS011;10508;50.956;4.640;2024-03-08T08:25:24;28.52;;;13.60;;
20697;SDS011;10508;50.956;4.640;2024-03-08T08:27:49;33.33;;;13.65;;
20697;SDS011;10508;50.956;4.640;2024-03-08T08:30:15;32.72;;;13.98;;
20697;SDS011;10508;50.956;4.640;2024-03-08T08:32:41;35.78;;;14.23;;
20697;SDS011;10508;50.956;4.640;2024-03-08T08:35:09;33.90;;;14.75;;
20697;SDS011;10508;50.956;4.640;2024-03-08T08:37:40;31.65;;;13.73;;
20697;SDS011;10508;50.956;4.640;2024-03-08T08:40:06;33.22;;;14.32;;
20697;SDS011;10508;50.956;4.640;2024-03-08T08:42:39;28.75;;;13.43;;
20697;SDS011;10508;50.956;4.640;2024-03-08T08:45:05;35.95;;;13.93;;
20697;SDS011;10508;50.956;4.640;2024-03-08T08:47:35;30.42;;;13.60;;
20697;SDS011;10508;50.956;4.640;2024-03-08T08:50:01;37.22;;;13.25;;
20697;SDS011;10508;50.956;4.640;2024-03-08T08:52:29;27.77;;;13.13;;
20697;SDS011;10508;50.956;4.640;2024-03-08T08:54:55;30.92;;;14.18;;
20697;SDS011;10508;50.956;4.640;2024-03-08T08:57:21;30.08;;;13.70;;
20697;SDS011;10508;50.956;4.640;2024-03-08T08:59:47;29.42;;;12.52;;
20697;SDS011;10508;50.956;4.640;2024-03-08T09:02:13;30.92;;;13.70;;
20697;SDS011;10508;50.956;4.640;2024-03-08T09:04:39;31.00;;;13.75;;
20697;SDS011;10508;50.956;4.640;2024-03-08T09:07:05;29.25;;;13.18;;
20697;SDS011;10508;50.956;4.640;2024-03-08T09:09:33;26.13;;;12.88;;
20697;SDS011;10508;50.956;4.640;2024-03-08T09:11:59;24.23;;;12.50;;
20697;SDS011;10508;50.956;4.640;2024-03-08T09:14:26;27.30;;;12.95;;
20697;SDS011;10508;50.956;4.640;2024-03-08T09:16:51;25.08;;;11.95;;
20697;SDS011;10508;50.956;4.640;2024-03-08T09:19:17;25.42;;;11.85;;
20697;SDS011;10508;50.956;4.640;2024-03-08T09:21:44;28.13;;;13.35;;
20697;SDS011;10508;50.956;4.640;2024-03-08T09:24:10;30.50;;;12.68;;
20697;SDS011;10508;50.956;4.640;2024-03-08T09:26:37;25.17;;;12.40;;
20697;SDS011;10508;50.956;4.640;2024-03-08T09:29:03;26.77;;;12.32;;
20697;SDS011;10508;50.956;4.640;2024-03-08T09:31:30;24.27;;;12.60;;
20697;SDS011;10508;50.956;4.640;2024-03-08T09:33:56;25.45;;;12.57;;
20697;SDS011;10508;50.956;4.640;2024-03-08T09:36:22;23.75;;;11.25;;
20697;SDS011;10508;50.956;4.640;2024-03-08T09:38:47;23.05;;;12.07;;
20697;SDS011;10508;50.956;4.640;2024-03-08T09:41:15;23.70;;;12.10;;
20697;SDS011;10508;50.956;4.640;2024-03-08T09:43:40;25.65;;;11.18;;
20697;SDS011;10508;50.956;4.640;2024-03-08T09:46:06;23.33;;;11.35;;
20697;SDS011;10508;50.956;4.640;2024-03-08T09:48:33;26.65;;;12.05;;
20697;SDS011;10508;50.956;4.640;2024-03-08T09:50:59;21.38;;;10.77;;
20697;SDS011;10508;50.956;4.640;2024-03-08T09:53:25;25.52;;;11.68;;
20697;SDS011;10508;50.956;4.640;2024-03-08T09:55:51;21.05;;;11.75;;
20697;SDS011;10508;50.956;4.640;2024-03-08T09:58:17;23.17;;;10.82;;
20697;SDS011;10508;50.956;4.640;2024-03-08T10:00:53;23.67;;;11.27;;
20697;SDS011;10508;50.956;4.640;2024-03-08T10:03:19;23.35;;;11.25;;
20697;SDS011;10508;50.956;4.640;2024-03-08T10:05:45;21.05;;;11.02;;
20697;SDS011;10508;50.956;4.640;2024-03-08T10:08:11;22.92;;;11.60;;
20697;SDS011;10508;50.956;4.640;2024-03-08T10:10:38;20.42;;;10.75;;
20697;SDS011;10508;50.956;4.640;2024-03-08T10:13:07;20.67;;;10.85;;
20697;SDS011;10508;50.956;4.640;2024-03-08T10:15:34;20.73;;;10.93;;
20697;SDS011;10508;50.956;4.640;2024-03-08T10:18:09;20.17;;;10.85;;
20697;SDS011;10508;50.956;4.640;2024-03-08T10:20:35;21.25;;;11.07;;
20697;SDS011;10508;50.956;4.640;2024-03-08T10:23:04;20.80;;;10.13;;
20697;SDS011;10508;50.956;4.640;2024-03-08T10:25:33;17.42;;;10.23;;
20697;SDS011;10508;50.956;4.640;2024-03-08T10:28:18;17.83;;;10.85;;
20697;SDS011;10508;50.956;4.640;2024-03-08T10:30:46;21.63;;;10.52;;
20697;SDS011;10508;50.956;4.640;2024-03-08T10:33:13;21.52;;;10.95;;
20697;SDS011;10508;50.956;4.640;2024-03-08T10:35:38;25.17;;;11.27;;
20697;SDS011;10508;50.956;4.640;2024-03-08T10:38:04;15.63;;;10.40;;
20697;SDS011;10508;50.956;4.640;2024-03-08T10:40:33;20.23;;;11.57;;
20697;SDS011;10508;50.956;4.640;2024-03-08T10:43:01;17.35;;;11.00;;
20697;SDS011;10508;50.956;4.640;2024-03-08T10:45:38;15.77;;;10.35;;
20697;SDS011;10508;50.956;4.640;2024-03-08T10:50:57;18.17;;;11.40;;
20697;SDS011;10508;50.956;4.640;2024-03-08T10:53:23;20.10;;;11.90;;
20697;SDS011;10508;50.956;4.640;2024-03-08T10:55:52;16.70;;;10.40;;
20697;SDS011;10508;50.956;4.640;2024-03-08T10:58:22;19.10;;;11.43;;
20697;SDS011;10508;50.956;4.640;2024-03-08T11:00:54;21.38;;;10.88;;
20697;SDS011;10508;50.956;4.640;2024-03-08T11:06:08;21.50;;;11.00;;
20697;SDS011;10508;50.956;4.640;2024-03-08T11:08:40;20.90;;;11.00;;
20697;SDS011;10508;50.956;4.640;2024-03-08T11:11:09;19.60;;;11.57;;
20697;SDS011;10508;50.956;4.640;2024-03-08T11:13:52;25.65;;;11.70;;
20697;SDS011;10508;50.956;4.640;2024-03-08T11:19:33;18.95;;;11.02;;
20697;SDS011;10508;50.956;4.640;2024-03-08T11:21:41;19.80;;;11.32;;
20697;SDS011;10508;50.956;4.640;2024-03-08T11:24:10;17.45;;;9.88;;
20697;SDS011;10508;50.956;4.640;2024-03-08T11:26:38;15.50;;;9.90;;
20697;SDS011;10508;50.956;4.640;2024-03-08T11:32:14;19.48;;;11.48;;
20697;SDS011;10508;50.956;4.640;2024-03-08T11:34:41;19.75;;;10.65;;
20697;SDS011;10508;50.956;4.640;2024-03-08T11:37:15;19.80;;;11.55;;
20697;SDS011;10508;50.956;4.640;2024-03-08T11:39:52;17.83;;;10.93;;
20697;SDS011;10508;50.956;4.640;2024-03-08T11:42:24;18.08;;;11.35;;
20697;SDS011;10508;50.956;4.640;2024-03-08T11:44:51;18.52;;;11.63;;
20697;SDS011;10508;50.956;4.640;2024-03-08T11:47:18;18.02;;;10.65;;
20697;SDS011;10508;50.956;4.640;2024-03-08T11:49:44;19.17;;;11.15;;
20697;SDS011;10508;50.956;4.640;2024-03-08T11:52:13;23.10;;;11.07;;
20697;SDS011;10508;50.956;4.640;2024-03-08T11:54:42;17.98;;;10.88;;
20697;SDS011;10508;50.956;4.640;2024-03-08T11:57:24;18.35;;;10.63;;
20697;SDS011;10508;50.956;4.640;2024-03-08T11:59:53;19.55;;;11.02;;
20697;SDS011;10508;50.956;4.640;2024-03-08T12:02:24;22.80;;;10.38;;
20697;SDS011;10508;50.956;4.640;2024-03-08T12:04:56;17.73;;;10.35;;
20697;SDS011;10508;50.956;4.640;2024-03-08T12:07:24;24.88;;;11.40;;
20697;SDS011;10508;50.956;4.640;2024-03-08T12:12:55;18.17;;;10.40;;
20697;SDS011;10508;50.956;4.640;2024-03-08T12:15:24;20.38;;;10.00;;
20697;SDS011;10508;50.956;4.640;2024-03-08T12:17:51;21.20;;;10.77;;
20697;SDS011;10508;50.956;4.640;2024-03-08T12:20:18;24.75;;;10.57;;
20697;SDS011;10508;50.956;4.640;2024-03-08T12:22:46;20.77;;;10.57;;
20697;SDS011;10508;50.956;4.640;2024-03-08T12:25:13;24.05;;;10.20;;
20697;SDS011;10508;50.956;4.640;2024-03-08T12:27:40;20.67;;;10.70;;
20697;SDS011;10508;50.956;4.640;2024-03-08T12:30:16;23.00;;;10.13;;
20697;SDS011;10508;50.956;4.640;2024-03-08T12:32:58;29.05;;;10.48;;
20697;SDS011;10508;50.956;4.640;2024-03-08T12:35:28;20.77;;;10.73;;
20697;SDS011;10508;50.956;4.640;2024-03-08T12:37:55;20.50;;;10.50;;
20697;SDS011;10508;50.956;4.640;2024-03-08T12:40:25;20.67;;;11.13;;
20697;SDS011;10508;50.956;4.640;2024-03-08T12:42:52;18.65;;;10.45;;
20697;SDS011;10508;50.956;4.640;2024-03-08T12:45:18;18.65;;;10.27;;
20697;SDS011;10508;50.956;4.640;2024-03-08T12:47:44;18.95;;;9.85;;
20697;SDS011;10508;50.956;4.640;2024-03-08T12:50:10;20.00;;;10.07;;
20697;SDS011;10508;50.956;4.640;2024-03-08T12:52:36;22.23;;;10.43;;
20697;SDS011;10508;50.956;4.640;2024-03-08T12:55:02;21.40;;;10.63;;
20697;SDS011;10508;50.956;4.640;2024-03-08T12:57:28;20.02;;;10.77;;
20697;SDS011;10508;50.956;4.640;2024-03-08T12:59:54;18.40;;;10.50;;
20697;SDS011;10508;50.956;4.640;2024-03-08T13:02:19;19.42;;;10.30;;
20697;SDS011;10508;50.956;4.640;2024-03-08T13:04:46;18.17;;;9.80;;
20697;SDS011;10508;50.956;4.640;2024-03-08T13:07:20;18.40;;;9.82;;
20697;SDS011;10508;50.956;4.640;2024-03-08T13:09:46;21.38;;;10.50;;
20697;SDS011;10508;50.956;4.640;2024-03-08T13:12:12;20.33;;;10.35;;
20697;SDS011;10508;50.956;4.640;2024-03-08T13:14:41;17.02;;;10.13;;
20697;SDS011;10508;50.956;4.640;2024-03-08T13:17:06;22.20;;;10.90;;
20697;SDS011;10508;50.956;4.640;2024-03-08T13:19:36;22.23;;;11.50;;
20697;SDS011;10508;50.956;4.640;2024-03-08T13:22:03;18.60;;;10.23;;
20697;SDS011;10508;50.956;4.640;2024-03-08T13:24:29;20.48;;;10.40;;
20697;SDS011;10508;50.956;4.640;2024-03-08T13:26:55;20.48;;;10.45;;
20697;SDS011;10508;50.956;4.640;2024-03-08T13:29:21;23.55;;;11.32;;
20697;SDS011;10508;50.956;4.640;2024-03-08T13:31:48;20.10;;;10.20;;
20697;SDS011;10508;50.956;4.640;2024-03-08T13:34:17;17.80;;;10.20;;
20697;SDS011;10508;50.956;4.640;2024-03-08T13:36:43;23.73;;;11.10;;
20697;SDS011;10508;50.956;4.640;2024-03-08T13:39:11;23.88;;;10.68;;
20697;SDS011;10508;50.956;4.640;2024-03-08T13:41:45;19.23;;;10.18;;
20697;SDS011;10508;50.956;4.640;2024-03-08T13:44:11;17.63;;;9.95;;
20697;SDS011;10508;50.956;4.640;2024-03-08T13:46:37;18.85;;;10.32;;
20697;SDS011;10508;50.956;4.640;2024-03-08T13:49:04;21.38;;;10.25;;
20697;SDS011;10508;50.956;4.640;2024-03-08T13:51:33;18.75;;;9.30;;
20697;SDS011;10508;50.956;4.640;2024-03-08T13:53:59;23.52;;;10.55;;
20697;SDS011;10508;50.956;4.640;2024-03-08T13:56:26;21.50;;;10.43;;
20697;SDS011;10508;50.956;4.640;2024-03-08T13:58:52;25.10;;;10.82;;
20697;SDS011;10508;50.956;4.640;2024-03-08T14:01:21;22.85;;;10.45;;
20697;SDS011;10508;50.956;4.640;2024-03-08T14:03:47;21.65;;;10.57;;
20697;SDS011;10508;50.956;4.640;2024-03-08T14:06:12;19.65;;;10.40;;
20697;SDS011;10508;50.956;4.640;2024-03-08T14:08:38;19.73;;;9.70;;
20697;SDS011;10508;50.956;4.640;2024-03-08T14:11:04;20.73;;;10.05;;
20697;SDS011;10508;50.956;4.640;2024-03-08T14:13:41;19.50;;;9.70;;
20697;SDS011;10508;50.956;4.640;2024-03-08T14:16:10;22.73;;;10.68;;
20697;SDS011;10508;50.956;4.640;2024-03-08T14:18:36;17.80;;;9.35;;
20697;SDS011;10508;50.956;4.640;2024-03-08T14:21:02;22.75;;;9.73;;
20697;SDS011;10508;50.956;4.640;2024-03-08T14:23:29;19.30;;;9.63;;
20697;SDS011;10508;50.956;4.640;2024-03-08T14:25:55;19.85;;;10.02;;
20697;SDS011;10508;50.956;4.640;2024-03-08T14:28:21;21.13;;;10.15;;
20697;SDS011;10508;50.956;4.640;2024-03-08T14:30:48;20.30;;;10.05;;
20697;SDS011;10508;50.956;4.640;2024-03-08T14:33:14;23.77;;;10.32;;
20697;SDS011;10508;50.956;4.640;2024-03-08T14:35:41;24.63;;;11.35;;
20697;SDS011;10508;50.956;4.640;2024-03-08T14:38:08;19.65;;;9.52;;